Latest Weather Observations for Ivanhoe Airport

IDN60801

Issued at 9:12 am EDT Friday 9 December 2022 (issued every 10 minutes, with the page automatically refreshed every 10 minutes)

About weather observations | Map of weather stations | Latest weather observations for NSW | Other Formats
Station Details ID: 049000 Name: IVANHOE AERODROME AWS Lat: -32.88 Lon: 144.31 Height: 100.0 m
Data from the previous 72 hours. | See also: Recent months at Ivanhoe Airport
Date/Time
EDT
Temp
°C
App
Temp
°C
Dew
Point
°C
Rel
Hum
%
Delta-T
°C
Wind Press
QNH
hPa
Press
MSL
hPa
Rain since
9am
mm
Dir  Spd
km/h
Gust
km/h
Spd
kts
Gust
kts
09/09:00am 16.2 11.3 5.2 48 5.3 SE 20 28 11 15 1016.6 1016.0 0.0
09/08:30am 14.9 10.1 4.9 51 4.7 SE 19 28 10 15 1016.0 1015.5 0.0
09/08:00am 13.5 8.5 4.4 54 4.2 SE 20 30 11 16 1015.8 1015.3 0.0
09/07:30am 12.8 9.9 6.6 66 3.0 SSE 11 19 6 10 1015.2 1014.7 0.0
09/07:00am 11.2 7.5 6.3 72 2.3 SE 15 20 8 11 1015.0 1014.5 0.0
09/06:30am 8.9 6.0 6.5 85 1.1 SE 11 13 6 7 1014.7 1014.2 0.0
09/06:00am 8.7 5.8 6.7 87 0.9 SSE 11 13 6 7 1014.8 1014.3 0.0
09/05:30am 8.9 6.0 6.7 86 1.0 SSE 11 13 6 7 1014.6 1014.1 0.0
09/05:00am 8.6 6.0 6.2 85 1.1 S 9 11 5 6 1014.4 1013.9 0.0
09/04:30am 9.3 6.8 6.6 83 1.3 SSE 9 13 5 7 1014.1 1013.6 0.0
09/04:00am 9.7 6.9 6.8 82 1.4 S 11 13 6 7 1014.0 1013.5 0.0
09/03:30am 9.6 7.2 7.0 84 1.2 SSW 9 11 5 6 1013.9 1013.4 0.0
09/03:00am 9.7 6.9 7.0 83 1.3 SSW 11 13 6 7 1013.9 1013.4 0.0
09/02:30am 10.1 7.7 7.2 82 1.4 SSW 9 11 5 6 1014.1 1013.6 0.0
09/02:00am 10.5 8.1 7.2 80 1.6 SSW 9 11 5 6 1014.1 1013.6 0.0
09/01:30am 10.6 8.1 6.7 77 1.8 SW 9 9 5 5 1014.5 1014.0 0.0
09/01:00am 10.5 8.4 6.6 77 1.8 WSW 7 9 4 5 1014.8 1014.3 0.0
09/12:30am 10.4 8.4 6.2 75 2.0 SW 6 7 3 4 1015.0 1014.5 0.0
09/12:00am 10.6 8.9 5.8 72 2.2 SSW 4 6 2 3 1015.1 1014.6 0.0
 
Date/Time
EDT
Temp
°C
App
Temp
°C
Dew
Point
°C
Rel
Hum
%
Delta-T
°C
Wind Press
QNH
hPa
Press
MSL
hPa
Rain since
9am
mm
Dir  Spd
km/h
Gust
km/h
Spd
kts
Gust
kts
08/11:30pm 11.1 9.0 5.8 70 2.5 S 6 6 3 3 1015.2 1014.7 0.0
08/11:00pm 11.9 9.5 5.3 64 3.1 SSE 7 7 4 4 1015.1 1014.6 0.0
08/10:30pm 13.0 10.6 5.4 60 3.6 S 7 9 4 5 1015.1 1014.6 0.0
08/10:00pm 13.8 11.0 5.2 56 4.0 SSE 9 11 5 6 1015.0 1014.5 0.0
08/09:30pm 14.2 11.3 4.8 53 4.4 SSE 9 11 5 6 1014.7 1014.2 0.0
08/09:00pm 15.2 11.9 4.6 49 5.0 SSE 11 13 6 7 1014.4 1013.9 0.0
08/08:30pm 16.6 12.8 4.0 43 5.9 SSE 13 20 7 11 1013.9 1013.4 0.0
08/08:00pm 18.3 14.0 3.4 37 7.0 S 15 19 8 10 1013.8 1013.3 0.0
08/07:30pm 19.4 14.8 3.6 35 7.5 S 17 26 9 14 1013.3 1012.8 0.0
08/07:00pm 20.1 15.0 2.9 32 8.1 SSW 19 30 10 16 1013.0 1012.5 0.0
08/06:30pm 20.3 14.9 2.6 31 8.3 SSW 20 30 11 16 1012.9 1012.4 0.0
08/06:00pm 21.3 16.2 4.0 32 8.4 SSW 20 30 11 16 1012.6 1012.1 0.0
08/05:30pm 21.1 15.9 3.3 31 8.5 SSW 20 30 11 16 1012.7 1012.2 0.0
08/05:00pm 21.2 15.7 3.9 32 8.4 S 22 33 12 18 1012.8 1012.3 0.0
08/04:30pm 21.1 15.9 3.8 32 8.3 SW 20 32 11 17 1013.1 1012.6 0.0
08/04:00pm 21.2 16.0 3.4 31 8.5 SSW 20 32 11 17 1013.4 1012.9 0.0
08/03:30pm 20.5 15.4 3.3 32 8.2 SSW 19 28 10 15 1013.6 1013.1 0.0
08/03:00pm 20.4 14.3 2.7 31 8.3 SSW 24 39 13 21 1013.8 1013.3 0.0
08/02:30pm 20.0 14.4 3.3 33 7.9 SW 22 32 12 17 1014.2 1013.7 0.0
08/02:00pm 19.5 14.4 2.8 33 7.8 SSW 19 35 10 19 1014.5 1014.0 0.0
08/01:30pm 18.5 12.5 3.2 36 7.2 SW 24 39 13 21 1014.8 1014.3 0.0
08/01:00pm 18.9 13.9 4.7 39 6.9 SW 20 32 11 17 1014.9 1014.4 0.0
08/12:30pm 18.4 13.6 4.6 40 6.6 SSW 19 33 10 18 1015.0 1014.5 0.0
08/12:00pm 17.7 12.8 4.3 41 6.4 S 19 32 10 17 1015.2 1014.7 0.0
08/11:30am 16.8 11.6 3.8 42 6.1 SSW 20 35 11 19 1015.5 1015.0 0.0
08/11:00am 16.7 11.8 5.0 46 5.6 S 20 33 11 18 1015.7 1015.2 0.0
08/10:30am 15.9 10.1 4.3 46 5.4 S 24 35 13 19 1015.8 1015.3 0.0
08/10:00am 15.4 10.1 4.8 49 5.0 S 22 32 12 17 1015.8 1015.3 0.0
08/09:30am 14.2 8.2 3.1 47 5.0 SSW 24 35 13 19 1015.7 1015.2 0.0
08/09:00am 13.8 7.9 3.9 51 4.5 SSW 24 35 13 19 1015.4 1014.9 1.8
08/08:30am 13.3 7.9 4.5 55 4.1 SSW 22 32 12 17 1015.2 1014.7 1.8
08/08:00am 12.7 6.9 4.2 56 3.9 S 24 37 13 20 1014.8 1014.3 1.8
08/07:30am 11.7 6.7 4.4 61 3.3 SSW 20 33 11 18 1014.3 1013.8 1.8
08/07:00am 10.8 5.8 4.7 66 2.8 SSW 20 30 11 16 1014.1 1013.6 1.8
08/06:30am 9.9 5.0 4.1 67 2.6 SSW 19 26 10 14 1013.6 1013.1 1.8
08/06:00am 10.1 5.0 4.0 66 2.7 SSW 20 28 11 15 1013.1 1012.6 1.8
08/05:30am 10.5 6.1 4.6 67 2.7 SSW 17 24 9 13 1012.7 1012.2 1.8
08/05:00am 11.0 6.3 5.3 68 2.6 SSW 19 26 10 14 1012.3 1011.8 1.8
08/04:30am 11.7 7.0 7.6 76 2.0 SSW 22 32 12 17 1012.2 1011.7 1.8
08/04:00am 12.2 8.1 7.7 74 2.2 SSW 19 28 10 15 1011.7 1011.2 1.8
08/03:30am 13.0 7.6 7.9 71 2.5 SSW 26 39 14 21 1011.5 1011.0 1.8
08/03:00am 13.7 8.8 8.3 70 2.7 SSW 24 37 13 20 1011.3 1010.8 1.8
08/02:30am 14.3 8.6 8.3 67 3.0 SSW 28 41 15 22 1011.3 1010.8 1.8
08/02:00am 15.2 10.2 8.0 62 3.6 SSW 24 33 13 18 1011.1 1010.6 1.8
08/01:30am 15.5 11.1 7.3 58 4.1 SW 20 28 11 15 1010.9 1010.4 1.8
08/01:00am 15.9 11.4 6.9 55 4.5 SW 20 28 11 15 1010.7 1010.2 1.8
08/12:30am 15.6 11.4 7.6 59 4.0 SW 19 24 10 13 1010.6 1010.1 1.8
08/12:00am 16.2 12.8 7.7 57 4.3 WSW 15 22 8 12 1010.3 1009.8 1.8
 
Date/Time
EDT
Temp
°C
App
Temp
°C
Dew
Point
°C
Rel
Hum
%
Delta-T
°C
Wind Press
QNH
hPa
Press
MSL
hPa
Rain since
9am
mm
Dir  Spd
km/h
Gust
km/h
Spd
kts
Gust
kts
07/11:30pm 16.8 13.5 8.0 56 4.5 SW 15 22 8 12 1009.9 1009.4 1.8
07/11:00pm 18.0 13.7 7.7 51 5.3 WSW 20 28 11 15 1009.4 1008.9 1.8
07/10:30pm 18.8 14.5 7.9 49 5.6 WSW 20 28 11 15 1008.8 1008.3 1.8
07/10:00pm 19.6 15.3 8.0 47 6.0 WSW 20 28 11 15 1008.2 1007.6 1.8
07/09:30pm 20.0 16.6 9.3 50 5.7 WSW 17 24 9 13 1007.6 1007.0 1.8
07/09:00pm 20.4 18.1 11.6 57 4.9 W 15 20 8 11 1007.0 1006.4 1.8
07/08:30pm 21.0 19.0 11.6 55 5.2 W 13 17 7 9 1006.5 1005.9 1.8
07/08:00pm 22.4 19.2 11.2 49 6.3 W 19 30 10 16 1006.1 1005.5 1.8
07/07:30pm 23.8 21.3 12.4 48 6.5 W 17 26 9 14 1005.6 1005.1 1.8
07/07:00pm 24.2 21.1 12.2 47 6.9 W 20 28 11 15 1005.4 1004.9 1.8
07/06:30pm 23.9 21.4 12.2 48 6.7 W 17 30 9 16 1005.1 1004.6 1.8
07/06:00pm 23.9 20.1 12.5 49 6.6 WSW 24 35 13 19 1004.9 1004.4 1.8
07/05:30pm 24.4 23.2 16.1 60 5.1 W 17 24 9 13 1004.9 1004.4 1.8
07/05:00pm 23.1 22.3 17.1 69 3.7 WNW 17 22 9 12 1005.3 1004.8 1.8
07/04:30pm 22.4 21.5 16.9 71 3.4 W 17 28 9 15 1005.6 1005.1 1.8
07/04:00pm 22.6 21.7 16.9 70 3.5 WNW 17 24 9 13 1005.6 1005.1 1.8
07/03:30pm 22.0 21.4 16.7 72 3.2 WNW 15 24 8 13 1005.5 1005.0 1.8
07/03:00pm 21.8 21.2 16.7 73 3.1 W 15 20 8 11 1005.8 1005.3 1.8
07/02:30pm 21.5 21.5 17.3 77 2.6 WNW 13 19 7 10 1005.7 1005.2 1.8
07/02:00pm 21.8 21.1 17.4 76 2.7 W 17 24 9 13 1006.1 1005.5 1.8
07/01:30pm 21.1 20.5 17.5 80 2.2 WNW 17 22 9 12 1006.6 1006.0 1.8
07/01:00pm 20.8 19.8 17.6 82 2.0 WNW 19 26 10 14 1006.6 1006.0 1.8
07/12:30pm 20.1 20.6 18.4 90 1.1 W 13 19 7 10 1006.7 1006.1 1.8
07/12:25pm 19.8 20.3 18.3 91 0.9 W 13 20 7 11 1006.5 1005.9 1.8
07/12:15pm 19.6 19.8 17.6 88 1.2 WNW 13 17 7 9 1006.7 1006.1 1.8
07/12:00pm 20.1 20.1 17.3 84 1.7 W 13 19 7 10 1006.2 1005.6 1.4
07/11:30am 20.0 20.6 17.8 87 1.4 NW 11 17 6 9 1006.8 1006.2 1.0
07/11:00am 19.5 19.9 18.2 92 0.8 NNW 13 19 7 10 1006.3 1005.7 0.8
07/10:30am 19.7 19.5 17.7 88 1.2 NNW 15 19 8 10 1006.2 1005.6 0.6
07/10:00am 19.3 19.6 17.8 91 0.9 NW 13 17 7 9 1006.3 1005.7 0.4
07/09:30am 18.6 19.3 17.1 91 0.9 WNW 9 15 5 8 1006.3 1005.7 0.0
07/09:00am 18.3 18.2 16.1 87 1.3 WNW 11 17 6 9 1006.6 1006.0 0.8
07/08:30am 18.3 16.7 15.0 81 1.9 WNW 17 24 9 13 1006.6 1006.0 0.0
07/08:00am 18.7 17.0 13.6 72 2.9 NW 15 22 8 12 1005.4 1004.9 0.0
07/07:30am 18.6 16.2 9.9 57 4.6 NW 13 17 7 9 1006.3 1005.7 0.0
07/07:00am 18.5 15.5 7.6 49 5.6 NNW 13 17 7 9 1005.3 1004.8 0.0
07/06:30am 17.0 14.0 7.9 55 4.6 N 13 15 7 8 1005.1 1004.6 0.0
07/06:00am 16.7 14.1 7.9 56 4.5 NNE 11 11 6 6 1004.5 1004.0 0.0
07/05:30am 17.1 14.4 7.2 52 5.0 N 11 13 6 7 1004.5 1004.0 0.0
07/05:00am 16.8 14.2 7.7 55 4.6 NNE 11 13 6 7 1003.8 1003.3 0.0
07/04:30am 16.9 14.2 7.5 54 4.7 NE 11 13 6 7 1003.6 1003.1 0.0
07/04:00am 17.2 14.4 7.0 51 5.1 NE 11 11 6 6 1003.8 1003.3 0.0
07/03:30am 17.5 14.6 6.4 48 5.5 N 11 13 6 7 1004.7 1004.2 0.0
07/03:00am 18.0 14.9 5.6 44 6.1 N 11 11 6 6 1004.8 1004.3 0.0
07/02:30am 18.3 15.6 5.5 43 6.3 N 9 11 5 6 1005.2 1004.7 0.0
07/02:00am 18.8 15.6 4.9 40 6.8 NNW 11 15 6 8 1006.1 1005.5 0.0
07/01:30am 18.9 15.4 5.4 41 6.6 NNW 13 17 7 9 1006.6 1006.0 0.0
07/01:00am 18.6 15.0 4.8 40 6.7 NNW 13 13 7 7 1006.8 1006.2 0.0
07/12:30am 18.8 15.4 4.2 38 7.0 N 11 13 6 7 1006.8 1006.2 0.0
07/12:00am 19.1 15.3 4.1 37 7.2 N 13 13 7 7 1007.1 1006.5 0.0
 
Date/Time
EDT
Temp
°C
App
Temp
°C
Dew
Point
°C
Rel
Hum
%
Delta-T
°C
Wind Press
QNH
hPa
Press
MSL
hPa
Rain since
9am
mm
Dir  Spd
km/h
Gust
km/h
Spd
kts
Gust
kts
06/11:30pm 19.7 16.6 3.8 35 7.6 N 9 13 5 7 1007.3 1006.7 0.0
06/11:00pm 19.6 16.9 3.7 35 7.6 N 7 9 4 5 1007.5 1006.9 0.0
06/10:30pm 19.3 16.6 3.5 35 7.5 N 7 7 4 4 1007.8 1007.2 0.0
06/10:00pm 19.0 17.2 3.6 36 7.3 N 2 9 1 5 1007.7 1007.1 0.0
06/09:30pm 18.8 17.7 5.3 41 6.6 CALM 0 0 0 0 1007.7 1007.1 0.0
06/09:00pm 19.2 18.6 7.6 47 6.0 CALM 0 0 0 0 1007.9 1007.3 0.0
06/08:30pm 20.3 18.6 5.9 39 7.2 WSW 4 6 2 3 1007.7 1007.1 0.0
06/08:00pm 22.3 20.0 5.7 34 8.4 WSW 7 9 4 5 1007.6 1007.0 0.0
06/07:30pm 25.4 22.5 1.5 21 11.4 WSW 6 9 3 5 1006.9 1006.3 0.0
06/07:00pm 26.3 22.5 -0.7 17 12.5 WSW 9 13 5 7 1006.8 1006.2 0.0
06/06:30pm 26.9 23.1 -1.0 16 12.8 SSW 9 13 5 7 1006.3 1005.7 0.0
06/06:00pm 26.2 22.2 2.8 22 11.5 SSE 13 17 7 9 1006.3 1005.7 0.0
06/05:30pm 26.3 23.3 2.3 21 11.7 SW 7 19 4 10 1006.7 1006.1 0.0
06/05:00pm 26.1 22.8 2.7 22 11.5 WSW 9 15 5 8 1007.3 1006.7 0.0
06/04:30pm 26.0 23.3 3.9 24 11.0 SW 7 15 4 8 1007.8 1007.2 0.0
06/04:00pm 26.0 21.7 3.3 23 11.3 SW 15 22 8 12 1008.4 1007.9 0.0
06/03:30pm 25.7 21.2 4.2 25 10.8 SW 17 24 9 13 1009.0 1008.5 0.0
06/03:00pm 24.7 20.6 4.5 27 10.1 SSW 15 28 8 15 1009.2 1008.7 0.0
06/02:30pm 25.2 20.9 3.2 24 10.8 SW 15 26 8 14 1009.5 1009.0 0.0
06/02:00pm 23.9 19.5 2.7 25 10.2 SW 15 26 8 14 1009.6 1009.1 0.0
06/01:30pm 23.1 18.7 2.6 26 9.8 SW 15 26 8 14 1009.8 1009.3 0.0
06/01:00pm 22.6 18.4 3.7 29 9.2 SW 15 24 8 13 1009.9 1009.4 0.0
06/12:30pm 22.3 18.7 4.8 32 8.7 WSW 13 20 7 11 1010.4 1009.9 0.0
06/12:00pm 21.4 17.8 4.9 34 8.2 SW 13 22 7 12 1010.6 1010.1 0.0
06/11:30am 21.4 18.7 7.3 40 7.3 SSE 11 22 6 12 1010.6 1010.1 0.0
06/11:00am 19.9 17.1 5.2 38 7.2 SW 9 17 5 9 1010.8 1010.3 0.0
06/10:30am 19.5 17.1 6.9 44 6.4 SSW 9 17 5 9 1011.1 1010.6 0.0
06/10:00am 18.6 16.3 7.4 48 5.7 SSW 9 13 5 7 1011.0 1010.5 0.0
06/09:30am 18.3 15.7 7.7 50 5.4 SSW 11 15 6 8 1011.2 1010.7 0.0

Other formats

Comma delimited format used in spreadsheet applications
http://www.bom.gov.au/fwo/IDN60801/IDN60801.95697.axf

JavaScript Object Notation format (JSON) in row-major order
http://www.bom.gov.au/fwo/IDN60801/IDN60801.95697.json

Data quality

Most of these data are generated automatically and are frequently updated. Quality checks on data are not normally performed. It is possible for incorrect values to appear. Refer to information at About Latest Weather Observations and please check the disclaimer before using these data.